sensor_id;sensor_type;location;lat;lon;timestamp;pressure;altitude;pressure_sealevel;temperature;humidity
66479;BME280;53294;47.912;13.526;2023-08-31T00:01:00;95660.41;;;13.28;81.52
66479;BME280;53294;47.912;13.526;2023-08-31T00:03:27;95664.84;;;13.24;81.59
66479;BME280;53294;47.912;13.526;2023-08-31T00:05:55;95660.06;;;13.30;80.76
66479;BME280;53294;47.912;13.526;2023-08-31T00:08:23;95659.97;;;13.18;81.81
66479;BME280;53294;47.912;13.526;2023-08-31T00:10:59;95649.88;;;13.06;82.49
66479;BME280;53294;47.912;13.526;2023-08-31T00:13:27;95656.97;;;13.10;82.06
66479;BME280;53294;47.912;13.526;2023-08-31T00:15:56;95658.91;;;13.01;82.28
66479;BME280;53294;47.912;13.526;2023-08-31T00:18:24;95655.47;;;12.92;82.45
66479;BME280;53294;47.912;13.526;2023-08-31T00:20:51;95660.53;;;12.93;82.38
66479;BME280;53294;47.912;13.526;2023-08-31T00:23:18;95663.41;;;12.88;82.44
66479;BME280;53294;47.912;13.526;2023-08-31T00:25:46;95661.88;;;12.79;82.81
66479;BME280;53294;47.912;13.526;2023-08-31T00:28:15;95674.72;;;12.73;82.79
66479;BME280;53294;47.912;13.526;2023-08-31T00:30:42;95663.16;;;12.72;83.18
66479;BME280;53294;47.912;13.526;2023-08-31T00:33:11;95667.59;;;12.68;83.17
66479;BME280;53294;47.912;13.526;2023-08-31T00:35:39;95668.06;;;12.70;83.00
66479;BME280;53294;47.912;13.526;2023-08-31T00:38:10;95672.47;;;12.75;82.50
66479;BME280;53294;47.912;13.526;2023-08-31T00:40:41;95670.75;;;12.70;82.67
66479;BME280;53294;47.912;13.526;2023-08-31T00:43:12;95661.88;;;12.70;82.67
66479;BME280;53294;47.912;13.526;2023-08-31T00:45:42;95668.38;;;12.69;82.58
66479;BME280;53294;47.912;13.526;2023-08-31T00:48:11;95667.28;;;12.61;82.70
66479;BME280;53294;47.912;13.526;2023-08-31T00:50:38;95673.81;;;12.60;82.78
66479;BME280;53294;47.912;13.526;2023-08-31T00:53:05;95672.84;;;12.65;82.82
66479;BME280;53294;47.912;13.526;2023-08-31T00:55:32;95670.47;;;12.63;82.94
66479;BME280;53294;47.912;13.526;2023-08-31T00:58:00;95681.38;;;12.67;83.20
66479;BME280;53294;47.912;13.526;2023-08-31T01:00:36;95673.63;;;12.65;83.04
66479;BME280;53294;47.912;13.526;2023-08-31T01:03:13;95680.91;;;12.65;82.86
66479;BME280;53294;47.912;13.526;2023-08-31T01:05:52;95682.66;;;12.61;83.48
66479;BME280;53294;47.912;13.526;2023-08-31T01:08:36;95689.66;;;12.62;83.35
66479;BME280;53294;47.912;13.526;2023-08-31T01:13:51;95684.41;;;12.65;83.35
66479;BME280;53294;47.912;13.526;2023-08-31T01:16:20;95691.38;;;12.66;83.39
66479;BME280;53294;47.912;13.526;2023-08-31T01:18:50;95694.53;;;12.68;83.60
66479;BME280;53294;47.912;13.526;2023-08-31T01:21:24;95685.81;;;12.71;83.84
66479;BME280;53294;47.912;13.526;2023-08-31T01:23:57;95692.47;;;12.74;84.08
66479;BME280;53294;47.912;13.526;2023-08-31T01:26:25;95690.25;;;12.76;84.27
66479;BME280;53294;47.912;13.526;2023-08-31T01:28:52;95688.63;;;12.84;84.32
66479;BME280;53294;47.912;13.526;2023-08-31T01:31:19;95691.16;;;12.89;83.84
66479;BME280;53294;47.912;13.526;2023-08-31T01:33:47;95690.03;;;12.90;84.19
66479;BME280;53294;47.912;13.526;2023-08-31T01:36:26;95688.91;;;12.91;84.44
66479;BME280;53294;47.912;13.526;2023-08-31T01:41:34;95689.78;;;13.13;83.11
66479;BME280;53294;47.912;13.526;2023-08-31T01:44:02;95692.66;;;13.16;83.32
66479;BME280;53294;47.912;13.526;2023-08-31T01:46:30;95687.91;;;13.13;83.59
66479;BME280;53294;47.912;13.526;2023-08-31T01:48:57;95689.34;;;13.10;83.59
66479;BME280;53294;47.912;13.526;2023-08-31T01:51:23;95692.50;;;13.13;83.77
66479;BME280;53294;47.912;13.526;2023-08-31T01:53:50;95696.47;;;13.15;84.03
66479;BME280;53294;47.912;13.526;2023-08-31T01:56:18;95694.88;;;13.14;84.23
66479;BME280;53294;47.912;13.526;2023-08-31T01:58:44;95695.69;;;13.15;84.11
66479;BME280;53294;47.912;13.526;2023-08-31T02:01:11;95691.06;;;13.15;84.54
66479;BME280;53294;47.912;13.526;2023-08-31T02:03:38;95704.22;;;13.17;84.68
66479;BME280;53294;47.912;13.526;2023-08-31T02:06:04;95703.91;;;13.18;84.31
66479;BME280;53294;47.912;13.526;2023-08-31T02:08:32;95702.94;;;13.23;84.29
66479;BME280;53294;47.912;13.526;2023-08-31T02:10:59;95698.00;;;13.25;84.33
66479;BME280;53294;47.912;13.526;2023-08-31T02:13:25;95697.22;;;13.24;84.32
66479;BME280;53294;47.912;13.526;2023-08-31T02:15:52;95700.69;;;13.25;84.22
66479;BME280;53294;47.912;13.526;2023-08-31T02:18:20;95699.13;;;13.24;84.69
66479;BME280;53294;47.912;13.526;2023-08-31T02:20:47;95699.91;;;13.24;84.79
66479;BME280;53294;47.912;13.526;2023-08-31T02:23:13;95701.63;;;13.29;84.99
66479;BME280;53294;47.912;13.526;2023-08-31T02:25:40;95706.38;;;13.32;84.91
66479;BME280;53294;47.912;13.526;2023-08-31T02:28:07;95705.31;;;13.33;84.69
66479;BME280;53294;47.912;13.526;2023-08-31T02:30:34;95704.78;;;13.31;84.93
66479;BME280;53294;47.912;13.526;2023-08-31T02:33:00;95708.00;;;13.33;84.98
66479;BME280;53294;47.912;13.526;2023-08-31T02:35:27;95706.88;;;13.34;84.80
66479;BME280;53294;47.912;13.526;2023-08-31T02:37:54;95705.59;;;13.32;83.95
66479;BME280;53294;47.912;13.526;2023-08-31T02:40:20;95707.81;;;13.29;82.99
66479;BME280;53294;47.912;13.526;2023-08-31T02:42:50;95711.00;;;13.32;82.65
66479;BME280;53294;47.912;13.526;2023-08-31T02:45:18;95708.00;;;13.33;82.73
66479;BME280;53294;47.912;13.526;2023-08-31T02:47:45;95718.28;;;13.31;82.34
66479;BME280;53294;47.912;13.526;2023-08-31T02:50:12;95715.59;;;13.31;81.99
66479;BME280;53294;47.912;13.526;2023-08-31T02:52:40;95723.22;;;13.29;81.52
66479;BME280;53294;47.912;13.526;2023-08-31T02:55:07;95722.56;;;13.32;81.33
66479;BME280;53294;47.912;13.526;2023-08-31T02:57:34;95727.50;;;13.30;80.59
66479;BME280;53294;47.912;13.526;2023-08-31T03:00:01;95730.19;;;13.30;79.94
66479;BME280;53294;47.912;13.526;2023-08-31T03:02:28;95726.38;;;13.31;80.05
66479;BME280;53294;47.912;13.526;2023-08-31T03:04:55;95730.34;;;13.25;80.56
66479;BME280;53294;47.912;13.526;2023-08-31T03:07:22;95725.16;;;13.20;80.70
66479;BME280;53294;47.912;13.526;2023-08-31T03:09:49;95725.78;;;13.17;80.62
66479;BME280;53294;47.912;13.526;2023-08-31T03:12:17;95724.19;;;13.16;80.78
66479;BME280;53294;47.912;13.526;2023-08-31T03:14:44;95728.69;;;13.11;80.69
66479;BME280;53294;47.912;13.526;2023-08-31T03:17:10;95722.47;;;13.11;80.50
66479;BME280;53294;47.912;13.526;2023-08-31T03:19:37;95729.16;;;13.05;80.98
66479;BME280;53294;47.912;13.526;2023-08-31T03:22:04;95729.66;;;12.98;81.38
66479;BME280;53294;47.912;13.526;2023-08-31T03:24:34;95744.75;;;12.90;81.49
66479;BME280;53294;47.912;13.526;2023-08-31T03:27:01;95742.03;;;12.82;81.76
66479;BME280;53294;47.912;13.526;2023-08-31T03:29:31;95745.56;;;12.73;81.85
66479;BME280;53294;47.912;13.526;2023-08-31T03:31:59;95741.94;;;12.69;81.59
66479;BME280;53294;47.912;13.526;2023-08-31T03:34:31;95744.47;;;12.66;81.92
66479;BME280;53294;47.912;13.526;2023-08-31T03:36:58;95745.91;;;12.63;82.28
66479;BME280;53294;47.912;13.526;2023-08-31T03:39:26;95747.19;;;12.57;82.02
66479;BME280;53294;47.912;13.526;2023-08-31T03:41:52;95750.34;;;12.59;81.68
66479;BME280;53294;47.912;13.526;2023-08-31T03:44:20;95749.38;;;12.55;81.64
66479;BME280;53294;47.912;13.526;2023-08-31T03:46:47;95752.56;;;12.48;81.98
66479;BME280;53294;47.912;13.526;2023-08-31T03:49:14;95745.25;;;12.49;81.64
66479;BME280;53294;47.912;13.526;2023-08-31T03:51:41;95757.16;;;12.48;81.40
66479;BME280;53294;47.912;13.526;2023-08-31T03:54:07;95753.19;;;12.36;81.80
66479;BME280;53294;47.912;13.526;2023-08-31T03:56:34;95753.97;;;12.28;82.52
66479;BME280;53294;47.912;13.526;2023-08-31T03:59:02;95760.16;;;12.20;82.34
66479;BME280;53294;47.912;13.526;2023-08-31T04:01:31;95752.38;;;12.10;82.64
66479;BME280;53294;47.912;13.526;2023-08-31T04:03:58;95754.75;;;12.02;83.08
66479;BME280;53294;47.912;13.526;2023-08-31T04:06:25;95767.56;;;11.97;82.68
66479;BME280;53294;47.912;13.526;2023-08-31T04:08:51;95756.34;;;11.95;82.70
66479;BME280;53294;47.912;13.526;2023-08-31T04:11:18;95760.91;;;11.94;83.14
66479;BME280;53294;47.912;13.526;2023-08-31T04:13:45;95765.44;;;11.85;83.35
66479;BME280;53294;47.912;13.526;2023-08-31T04:16:11;95769.25;;;11.84;82.61
66479;BME280;53294;47.912;13.526;2023-08-31T04:18:38;95761.31;;;11.70;83.62
66479;BME280;53294;47.912;13.526;2023-08-31T04:21:05;95759.72;;;11.69;83.58
66479;BME280;53294;47.912;13.526;2023-08-31T04:23:32;95764.78;;;11.71;83.48
66479;BME280;53294;47.912;13.526;2023-08-31T04:25:59;95764.44;;;11.63;83.81
66479;BME280;53294;47.912;13.526;2023-08-31T04:28:25;95772.19;;;11.56;84.17
66479;BME280;53294;47.912;13.526;2023-08-31T04:30:52;95770.91;;;11.54;84.46
66479;BME280;53294;47.912;13.526;2023-08-31T04:33:19;95772.28;;;11.51;84.78
66479;BME280;53294;47.912;13.526;2023-08-31T04:35:46;95767.13;;;11.55;84.55
66479;BME280;53294;47.912;13.526;2023-08-31T04:38:12;95768.38;;;11.57;84.56
66479;BME280;53294;47.912;13.526;2023-08-31T04:40:39;95774.09;;;11.64;85.02
66479;BME280;53294;47.912;13.526;2023-08-31T04:43:06;95770.00;;;11.67;85.36
66479;BME280;53294;47.912;13.526;2023-08-31T04:45:32;95778.69;;;11.73;85.30
66479;BME280;53294;47.912;13.526;2023-08-31T04:47:59;95770.50;;;11.78;85.56
66479;BME280;53294;47.912;13.526;2023-08-31T04:50:26;95777.03;;;11.85;85.99
66479;BME280;53294;47.912;13.526;2023-08-31T04:52:52;95774.34;;;11.94;85.67
66479;BME280;53294;47.912;13.526;2023-08-31T04:55:21;95774.06;;;12.05;84.80
66479;BME280;53294;47.912;13.526;2023-08-31T04:57:48;95789.44;;;12.13;84.91
66479;BME280;53294;47.912;13.526;2023-08-31T05:00:15;95791.97;;;12.18;84.70
66479;BME280;53294;47.912;13.526;2023-08-31T05:02:42;95796.59;;;12.26;84.64
66479;BME280;53294;47.912;13.526;2023-08-31T05:05:09;95818.16;;;12.44;83.62
66479;BME280;53294;47.912;13.526;2023-08-31T05:07:37;95848.28;;;12.98;81.16
66479;BME280;53294;47.912;13.526;2023-08-31T05:10:04;95871.72;;;13.06;80.92
66479;BME280;53294;47.912;13.526;2023-08-31T05:12:31;95873.66;;;13.15;83.00
66479;BME280;53294;47.912;13.526;2023-08-31T05:14:58;95885.53;;;13.05;84.56
66479;BME280;53294;47.912;13.526;2023-08-31T05:17:25;95886.94;;;13.11;84.98
66479;BME280;53294;47.912;13.526;2023-08-31T05:19:51;95879.81;;;12.89;86.22
66479;BME280;53294;47.912;13.526;2023-08-31T05:22:18;95889.00;;;12.70;88.36
66479;BME280;53294;47.912;13.526;2023-08-31T05:24:45;95892.81;;;12.61;90.11
66479;BME280;53294;47.912;13.526;2023-08-31T05:27:11;95898.66;;;12.54;91.62
66479;BME280;53294;47.912;13.526;2023-08-31T05:29:38;95922.09;;;12.53;92.64
66479;BME280;53294;47.912;13.526;2023-08-31T05:32:05;95926.41;;;12.54;93.15
66479;BME280;53294;47.912;13.526;2023-08-31T05:34:32;95924.00;;;12.53;93.37
66479;BME280;53294;47.912;13.526;2023-08-31T05:37:04;95918.63;;;12.53;94.18
66479;BME280;53294;47.912;13.526;2023-08-31T05:39:31;95926.41;;;12.54;93.77
66479;BME280;53294;47.912;13.526;2023-08-31T05:41:58;95928.78;;;12.56;93.67
66479;BME280;53294;47.912;13.526;2023-08-31T05:44:26;95926.88;;;12.65;93.08
66479;BME280;53294;47.912;13.526;2023-08-31T05:46:53;95923.59;;;12.86;91.52
66479;BME280;53294;47.912;13.526;2023-08-31T05:49:19;95917.25;;;13.25;87.90
66479;BME280;53294;47.912;13.526;2023-08-31T05:51:46;95914.22;;;13.09;88.13
66479;BME280;53294;47.912;13.526;2023-08-31T05:54:13;95920.88;;;12.86;91.29
66479;BME280;53294;47.912;13.526;2023-08-31T05:56:40;95924.22;;;12.83;92.59
66479;BME280;53294;47.912;13.526;2023-08-31T05:59:06;95924.84;;;12.80;94.20
66479;BME280;53294;47.912;13.526;2023-08-31T06:01:35;95929.44;;;12.88;94.25
66479;BME280;53294;47.912;13.526;2023-08-31T06:04:02;95925.00;;;12.92;93.81
66479;BME280;53294;47.912;13.526;2023-08-31T06:06:30;95924.38;;;12.95;92.78
66479;BME280;53294;47.912;13.526;2023-08-31T06:08:59;95927.88;;;13.04;93.13
66479;BME280;53294;47.912;13.526;2023-08-31T06:11:25;95930.91;;;13.11;94.40
66479;BME280;53294;47.912;13.526;2023-08-31T06:13:52;95928.38;;;13.24;94.47
66479;BME280;53294;47.912;13.526;2023-08-31T06:16:19;95937.56;;;13.32;94.42
66479;BME280;53294;47.912;13.526;2023-08-31T06:18:46;95941.88;;;13.41;94.10
66479;BME280;53294;47.912;13.526;2023-08-31T06:21:12;95937.72;;;13.53;93.54
66479;BME280;53294;47.912;13.526;2023-08-31T06:23:39;95951.81;;;13.67;93.95
66479;BME280;53294;47.912;13.526;2023-08-31T06:26:06;95949.72;;;13.81;92.41
66479;BME280;53294;47.912;13.526;2023-08-31T06:28:33;95941.13;;;13.97;91.46
66479;BME280;53294;47.912;13.526;2023-08-31T06:30:59;95948.41;;;14.05;88.47
66479;BME280;53294;47.912;13.526;2023-08-31T06:33:26;95946.44;;;14.14;86.61
66479;BME280;53294;47.912;13.526;2023-08-31T06:35:53;95946.88;;;14.25;86.04
66479;BME280;53294;47.912;13.526;2023-08-31T06:38:19;95950.47;;;14.38;88.21
66479;BME280;53294;47.912;13.526;2023-08-31T06:40:47;95949.81;;;14.50;89.04
66479;BME280;53294;47.912;13.526;2023-08-31T06:43:14;95937.03;;;14.89;85.12
66479;BME280;53294;47.912;13.526;2023-08-31T06:45:41;95938.63;;;15.11;82.14
66479;BME280;53294;47.912;13.526;2023-08-31T06:48:08;95948.25;;;15.00;85.13
66479;BME280;53294;47.912;13.526;2023-08-31T06:50:35;95941.72;;;15.01;84.90
66479;BME280;53294;47.912;13.526;2023-08-31T06:53:04;95949.66;;;15.06;85.56
66479;BME280;53294;47.912;13.526;2023-08-31T06:55:31;95952.41;;;15.18;85.25
66479;BME280;53294;47.912;13.526;2023-08-31T06:57:59;95947.06;;;15.31;83.90
66479;BME280;53294;47.912;13.526;2023-08-31T07:00:25;95947.13;;;15.43;82.52
66479;BME280;53294;47.912;13.526;2023-08-31T07:02:52;95949.06;;;15.55;82.17
66479;BME280;53294;47.912;13.526;2023-08-31T07:05:19;95952.69;;;15.80;78.53
66479;BME280;53294;47.912;13.526;2023-08-31T07:07:52;95953.41;;;16.02;76.40
66479;BME280;53294;47.912;13.526;2023-08-31T07:10:21;95952.31;;;16.15;74.29
66479;BME280;53294;47.912;13.526;2023-08-31T07:12:48;95952.75;;;16.17;74.85
66479;BME280;53294;47.912;13.526;2023-08-31T07:15:16;95954.25;;;16.27;76.09
66479;BME280;53294;47.912;13.526;2023-08-31T07:17:42;95955.81;;;16.40;77.37
66479;BME280;53294;47.912;13.526;2023-08-31T07:20:09;95958.66;;;16.44;74.78
66479;BME280;53294;47.912;13.526;2023-08-31T07:22:37;95961.16;;;16.49;75.61
66479;BME280;53294;47.912;13.526;2023-08-31T07:25:04;95969.03;;;16.54;76.60
66479;BME280;53294;47.912;13.526;2023-08-31T07:27:32;95961.69;;;16.67;76.65
66479;BME280;53294;47.912;13.526;2023-08-31T07:29:59;95960.66;;;16.84;77.49
66479;BME280;53294;47.912;13.526;2023-08-31T07:32:25;95967.69;;;16.97;77.17
66479;BME280;53294;47.912;13.526;2023-08-31T07:34:52;95966.00;;;17.05;77.35
66479;BME280;53294;47.912;13.526;2023-08-31T07:37:19;95961.81;;;17.08;77.15
66479;BME280;53294;47.912;13.526;2023-08-31T07:39:46;95965.22;;;17.04;75.30
66479;BME280;53294;47.912;13.526;2023-08-31T07:42:12;95972.78;;;16.99;75.58
66479;BME280;53294;47.912;13.526;2023-08-31T07:44:39;95964.22;;;16.97;75.84
66479;BME280;53294;47.912;13.526;2023-08-31T07:47:08;95975.84;;;16.97;76.59
66479;BME280;53294;47.912;13.526;2023-08-31T07:49:34;95971.31;;;17.01;76.40
66479;BME280;53294;47.912;13.526;2023-08-31T07:52:01;95977.53;;;17.02;72.52
66479;BME280;53294;47.912;13.526;2023-08-31T07:54:29;95975.56;;;17.96;70.54
66479;BME280;53294;47.912;13.526;2023-08-31T07:56:57;95979.88;;;18.93;67.97
66479;BME280;53294;47.912;13.526;2023-08-31T07:59:23;95977.25;;;19.90;65.56
66479;BME280;53294;47.912;13.526;2023-08-31T08:01:50;95971.22;;;19.81;64.31
66479;BME280;53294;47.912;13.526;2023-08-31T08:04:17;95976.94;;;19.57;63.21
66479;BME280;53294;47.912;13.526;2023-08-31T08:06:46;95986.94;;;19.13;63.83
66479;BME280;53294;47.912;13.526;2023-08-31T08:09:12;95995.84;;;18.94;65.59
66479;BME280;53294;47.912;13.526;2023-08-31T08:11:39;96002.00;;;18.91;66.65
66479;BME280;53294;47.912;13.526;2023-08-31T08:14:06;96003.13;;;18.74;68.59
66479;BME280;53294;47.912;13.526;2023-08-31T08:16:33;96002.78;;;18.60;69.38
66479;BME280;53294;47.912;13.526;2023-08-31T08:19:02;95996.28;;;18.48;68.29
66479;BME280;53294;47.912;13.526;2023-08-31T08:21:29;96005.59;;;18.47;67.25
66479;BME280;53294;47.912;13.526;2023-08-31T08:23:55;96012.59;;;18.48;67.44
66479;BME280;53294;47.912;13.526;2023-08-31T08:26:22;96009.78;;;18.61;64.36
66479;BME280;53294;47.912;13.526;2023-08-31T08:28:48;96015.41;;;18.68;62.31
66479;BME280;53294;47.912;13.526;2023-08-31T08:31:15;96025.63;;;18.11;63.32
66479;BME280;53294;47.912;13.526;2023-08-31T08:33:42;96021.94;;;17.63;63.55
66479;BME280;53294;47.912;13.526;2023-08-31T08:36:08;96025.56;;;17.26;66.35
66479;BME280;53294;47.912;13.526;2023-08-31T08:38:36;96032.13;;;17.13;68.23
66479;BME280;53294;47.912;13.526;2023-08-31T08:41:06;96036.16;;;17.31;66.94
66479;BME280;53294;47.912;13.526;2023-08-31T08:43:34;96037.09;;;17.23;66.92
66479;BME280;53294;47.912;13.526;2023-08-31T08:46:05;96033.47;;;17.07;65.99
66479;BME280;53294;47.912;13.526;2023-08-31T08:48:33;96039.00;;;17.10;65.85
66479;BME280;53294;47.912;13.526;2023-08-31T08:51:02;96035.06;;;16.95;66.56
66479;BME280;53294;47.912;13.526;2023-08-31T08:53:29;96032.44;;;16.74;67.60
66479;BME280;53294;47.912;13.526;2023-08-31T08:55:56;96033.94;;;16.96;68.63
66479;BME280;53294;47.912;13.526;2023-08-31T08:58:23;96030.97;;;17.26;68.09
66479;BME280;53294;47.912;13.526;2023-08-31T09:00:50;96034.66;;;17.46;68.22
66479;BME280;53294;47.912;13.526;2023-08-31T09:03:18;96040.00;;;17.71;66.99
66479;BME280;53294;47.912;13.526;2023-08-31T09:05:45;96046.69;;;17.73;66.13
66479;BME280;53294;47.912;13.526;2023-08-31T09:08:11;96051.88;;;17.79;65.00
66479;BME280;53294;47.912;13.526;2023-08-31T09:10:45;96049.78;;;17.88;64.10
66479;BME280;53294;47.912;13.526;2023-08-31T09:13:14;96049.38;;;17.86;64.57
66479;BME280;53294;47.912;13.526;2023-08-31T09:15:46;96042.81;;;17.87;63.87
66479;BME280;53294;47.912;13.526;2023-08-31T09:20:47;96053.41;;;18.04;63.75
66479;BME280;53294;47.912;13.526;2023-08-31T09:23:15;96039.34;;;18.30;62.58
66479;BME280;53294;47.912;13.526;2023-08-31T09:25:43;96045.22;;;18.48;61.34
66479;BME280;53294;47.912;13.526;2023-08-31T09:28:14;96046.31;;;18.92;59.60
66479;BME280;53294;47.912;13.526;2023-08-31T09:30:41;96042.81;;;19.43;57.58
66479;BME280;53294;47.912;13.526;2023-08-31T09:33:09;96044.78;;;20.20;56.98
66479;BME280;53294;47.912;13.526;2023-08-31T09:35:40;96041.31;;;20.66;55.65
66479;BME280;53294;47.912;13.526;2023-08-31T09:38:09;96045.09;;;20.61;56.04
66479;BME280;53294;47.912;13.526;2023-08-31T09:40:37;96051.03;;;20.44;55.55
66479;BME280;53294;47.912;13.526;2023-08-31T09:43:04;96055.38;;;20.25;54.67
66479;BME280;53294;47.912;13.526;2023-08-31T09:45:32;96064.31;;;20.03;55.66
66479;BME280;53294;47.912;13.526;2023-08-31T09:48:03;96068.25;;;19.50;56.78
66479;BME280;53294;47.912;13.526;2023-08-31T09:50:32;96068.19;;;19.31;55.91
66479;BME280;53294;47.912;13.526;2023-08-31T09:53:03;96070.25;;;19.18;57.77
66479;BME280;53294;47.912;13.526;2023-08-31T09:55:32;96077.91;;;18.96;58.81
66479;BME280;53294;47.912;13.526;2023-08-31T09:58:02;96076.38;;;18.83;59.48
66479;BME280;53294;47.912;13.526;2023-08-31T10:00:41;96068.78;;;18.89;59.80
66479;BME280;53294;47.912;13.526;2023-08-31T10:03:10;96065.44;;;19.11;57.44
66479;BME280;53294;47.912;13.526;2023-08-31T10:05:47;96068.53;;;19.45;56.25
66479;BME280;53294;47.912;13.526;2023-08-31T10:08:15;96050.69;;;19.83;54.92
66479;BME280;53294;47.912;13.526;2023-08-31T10:10:43;96072.13;;;20.04;53.86
66479;BME280;53294;47.912;13.526;2023-08-31T10:13:12;96070.19;;;20.24;52.70
66479;BME280;53294;47.912;13.526;2023-08-31T10:15:41;96058.16;;;20.06;53.69
66479;BME280;53294;47.912;13.526;2023-08-31T10:18:09;96059.44;;;19.93;54.20
66479;BME280;53294;47.912;13.526;2023-08-31T10:20:36;96060.84;;;19.86;54.34
66479;BME280;53294;47.912;13.526;2023-08-31T10:23:05;96061.00;;;19.94;54.03
66479;BME280;53294;47.912;13.526;2023-08-31T10:28:22;96061.75;;;19.55;54.57
66479;BME280;53294;47.912;13.526;2023-08-31T10:31:04;96061.53;;;19.64;54.32
66479;BME280;53294;47.912;13.526;2023-08-31T10:33:40;96055.66;;;19.62;54.65
66479;BME280;53294;47.912;13.526;2023-08-31T10:36:18;96067.97;;;19.55;54.44
66479;BME280;53294;47.912;13.526;2023-08-31T10:39:01;96058.53;;;19.69;53.82
66479;BME280;53294;47.912;13.526;2023-08-31T10:41:36;96061.38;;;19.76;54.26
66479;BME280;53294;47.912;13.526;2023-08-31T10:44:41;96065.44;;;20.21;52.59
66479;BME280;53294;47.912;13.526;2023-08-31T10:47:08;96056.50;;;20.44;51.60
66479;BME280;53294;47.912;13.526;2023-08-31T10:49:35;96049.41;;;20.62;51.35
66479;BME280;53294;47.912;13.526;2023-08-31T10:52:18;96050.34;;;20.93;50.86
66479;BME280;53294;47.912;13.526;2023-08-31T10:54:54;96045.63;;;21.44;49.07
66479;BME280;53294;47.912;13.526;2023-08-31T10:57:29;96054.56;;;21.67;49.12
66479;BME280;53294;47.912;13.526;2023-08-31T10:59:57;96050.03;;;21.79;48.12
66479;BME280;53294;47.912;13.526;2023-08-31T11:07:43;96039.84;;;23.44;44.29
66479;BME280;53294;47.912;13.526;2023-08-31T11:10:20;96045.66;;;24.05;42.65
66479;BME280;53294;47.912;13.526;2023-08-31T11:12:48;96052.69;;;24.06;42.87
66479;BME280;53294;47.912;13.526;2023-08-31T11:15:17;96052.38;;;24.26;39.31
66479;BME280;53294;47.912;13.526;2023-08-31T11:17:44;96049.13;;;23.91;42.29
66479;BME280;53294;47.912;13.526;2023-08-31T11:20:16;96048.75;;;23.93;40.93
66479;BME280;53294;47.912;13.526;2023-08-31T11:22:46;96053.66;;;24.68;40.92
66479;BME280;53294;47.912;13.526;2023-08-31T11:25:17;96032.47;;;24.94;39.34
66479;BME280;53294;47.912;13.526;2023-08-31T11:30:20;96022.38;;;26.26;36.55
66479;BME280;53294;47.912;13.526;2023-08-31T11:32:50;96017.13;;;26.42;35.81
66479;BME280;53294;47.912;13.526;2023-08-31T11:35:18;96017.19;;;26.31;36.08
66479;BME280;53294;47.912;13.526;2023-08-31T11:37:45;96029.91;;;26.11;37.89
66479;BME280;53294;47.912;13.526;2023-08-31T11:40:13;96028.41;;;25.85;36.79
66479;BME280;53294;47.912;13.526;2023-08-31T11:42:44;96030.91;;;24.89;38.37
66479;BME280;53294;47.912;13.526;2023-08-31T11:45:12;96025.38;;;24.35;39.24
66479;BME280;53294;47.912;13.526;2023-08-31T11:47:41;96035.84;;;24.04;40.84
66479;BME280;53294;47.912;13.526;2023-08-31T11:50:09;96028.38;;;23.90;40.11
66479;BME280;53294;47.912;13.526;2023-08-31T11:52:36;96023.31;;;23.96;39.72
66479;BME280;53294;47.912;13.526;2023-08-31T11:55:10;96024.66;;;24.60;39.71
66479;BME280;53294;47.912;13.526;2023-08-31T11:57:37;96010.50;;;25.01;38.91
66479;BME280;53294;47.912;13.526;2023-08-31T12:00:04;96009.72;;;25.07;37.44
66479;BME280;53294;47.912;13.526;2023-08-31T12:02:35;96010.47;;;25.44;38.28
66479;BME280;53294;47.912;13.526;2023-08-31T12:05:06;96003.63;;;26.03;36.27
66479;BME280;53294;47.912;13.526;2023-08-31T12:07:39;95999.38;;;27.07;35.59
66479;BME280;53294;47.912;13.526;2023-08-31T12:10:08;96004.72;;;27.97;33.11
66479;BME280;53294;47.912;13.526;2023-08-31T12:12:35;96000.69;;;28.05;33.07
66479;BME280;53294;47.912;13.526;2023-08-31T12:15:03;95991.75;;;27.90;33.92
66479;BME280;53294;47.912;13.526;2023-08-31T12:17:31;95995.94;;;28.06;34.94
66479;BME280;53294;47.912;13.526;2023-08-31T12:20:05;95992.28;;;28.43;32.36
66479;BME280;53294;47.912;13.526;2023-08-31T12:22:32;95993.66;;;28.59;31.99
66479;BME280;53294;47.912;13.526;2023-08-31T12:24:59;95993.91;;;28.92;32.62
66479;BME280;53294;47.912;13.526;2023-08-31T12:27:26;95993.03;;;28.71;33.26
66479;BME280;53294;47.912;13.526;2023-08-31T12:29:53;96002.59;;;28.08;32.21
66479;BME280;53294;47.912;13.526;2023-08-31T12:32:20;95980.75;;;27.56;32.24
66479;BME280;53294;47.912;13.526;2023-08-31T12:34:47;95996.41;;;27.66;32.73
66479;BME280;53294;47.912;13.526;2023-08-31T12:37:14;95995.16;;;27.71;33.81
66479;BME280;53294;47.912;13.526;2023-08-31T12:39:41;96001.69;;;27.50;34.35
66479;BME280;53294;47.912;13.526;2023-08-31T12:42:11;95994.69;;;27.80;33.68
66479;BME280;53294;47.912;13.526;2023-08-31T12:44:48;95999.75;;;28.16;33.33
66479;BME280;53294;47.912;13.526;2023-08-31T12:47:15;96000.47;;;28.20;32.86
66479;BME280;53294;47.912;13.526;2023-08-31T12:49:42;95986.66;;;27.89;32.48
66479;BME280;53294;47.912;13.526;2023-08-31T12:52:08;95987.91;;;28.15;32.66
66479;BME280;53294;47.912;13.526;2023-08-31T12:54:35;95984.16;;;28.60;32.15
66479;BME280;53294;47.912;13.526;2023-08-31T12:57:02;95986.69;;;28.98;32.15
66479;BME280;53294;47.912;13.526;2023-08-31T12:59:29;95983.44;;;29.27;32.14
66479;BME280;53294;47.912;13.526;2023-08-31T13:01:56;95985.25;;;29.37;30.76
66479;BME280;53294;47.912;13.526;2023-08-31T13:04:23;95979.22;;;28.71;31.82
66479;BME280;53294;47.912;13.526;2023-08-31T13:06:51;95977.56;;;28.23;32.85
66479;BME280;53294;47.912;13.526;2023-08-31T13:09:17;95990.66;;;27.50;31.08
66479;BME280;53294;47.912;13.526;2023-08-31T13:11:44;95990.78;;;26.97;32.36
66479;BME280;53294;47.912;13.526;2023-08-31T13:14:11;95989.50;;;26.57;34.51